Time;durP1;ratioP1;P1;durP2;ratioP2;P2;SDS_P1;SDS_P2;PMS_P1;PMS_P2;Temp;Humidity;BMP_temperature;BMP_pressure;BME280_temperature;BME280_humidity;BME280_pressure;Samples;Min_cycle;Max_cycle;Signal;HPM_P1;HPM_P2
2022/04/19 00:00:51;;;;;;;3.95;3.05;;;;;;;;;;5015210;28;20430;-46
2022/04/19 00:03:16;;;;;;;5.00;2.80;;;;;;;;;;5015178;28;20482;-46
2022/04/19 00:05:42;;;;;;;4.10;2.53;;;;;;;;;;5015173;28;20116;-45
2022/04/19 00:08:10;;;;;;;3.63;2.80;;;;;;;;;;5015095;28;20025;-45
2022/04/19 00:10:36;;;;;;;3.13;2.17;;;;;;;;;;5014933;28;20030;-45
2022/04/19 00:13:04;;;;;;;3.28;2.75;;;;;;;;;;5015368;28;20030;-46
2022/04/19 00:15:31;;;;;;;4.30;2.85;;;;;;;;;;5014906;28;20068;-45
2022/04/19 00:17:58;;;;;;;5.03;2.63;;;;;;;;;;5014904;28;20026;-46
2022/04/19 00:20:24;;;;;;;6.45;2.75;;;;;;;;;;5014904;28;20217;-45
2022/04/19 00:22:50;;;;;;;4.68;3.03;;;;;;;;;;5015088;28;20120;-46
2022/04/19 00:25:17;;;;;;;5.57;3.28;;;;;;;;;;5015099;28;20176;-46
2022/04/19 00:27:43;;;;;;;3.53;2.60;;;;;;;;;;5014763;28;20022;-46
2022/04/19 00:30:09;;;;;;;5.55;2.97;;;;;;;;;;5014889;28;20035;-46
2022/04/19 00:32:35;;;;;;;4.28;2.47;;;;;;;;;;5014667;28;20085;-46
2022/04/19 00:35:06;;;;;;;3.17;2.40;;;;;;;;;;5014890;28;20018;-48
2022/04/19 00:37:35;;;;;;;2.90;2.60;;;;;;;;;;4997002;28;20471;-46
2022/04/19 00:40:08;;;;;;;5.25;2.90;;;;;;;;;;5014744;28;20022;-48
2022/04/19 00:42:37;;;;;;;2.78;2.50;;;;;;;;;;5014766;28;20104;-46
2022/04/19 00:45:05;;;;;;;3.28;2.70;;;;;;;;;;5014704;28;20037;-47
2022/04/19 00:47:32;;;;;;;3.17;2.60;;;;;;;;;;5014312;28;20514;-46
2022/04/19 00:50:01;;;;;;;4.60;2.65;;;;;;;;;;5014241;28;20069;-46
2022/04/19 00:52:30;;;;;;;2.97;2.67;;;;;;;;;;5014244;28;20462;-45
2022/04/19 00:54:58;;;;;;;2.47;2.25;;;;;;;;;;5014556;28;20033;-46
2022/04/19 00:57:24;;;;;;;2.30;2.10;;;;;;;;;;5014467;28;20026;-48
2022/04/19 00:59:53;;;;;;;2.03;1.85;;;;;;;;;;5013923;28;20030;-45
2022/04/19 01:02:18;;;;;;;3.30;2.83;;;;;;;;;;5013936;28;20072;-45
2022/04/19 01:04:44;;;;;;;1.98;1.80;;;;;;;;;;5013444;28;20030;-44
2022/04/19 01:07:11;;;;;;;4.28;2.05;;;;;;;;;;5013951;28;20120;-45
2022/04/19 01:09:37;;;;;;;1.95;1.08;;;;;;;;;;5013919;28;20482;-47
2022/04/19 01:14:48;;;;;;;3.60;2.47;;;;;;;;;;5014261;28;20036;-46
2022/04/19 01:17:14;;;;;;;3.80;2.70;;;;;;;;;;5013779;28;20029;-45
2022/04/19 01:19:40;;;;;;;3.63;2.90;;;;;;;;;;5013802;28;20117;-45
2022/04/19 01:22:06;;;;;;;5.25;3.22;;;;;;;;;;5013711;28;20120;-46
2022/04/19 01:24:32;;;;;;;4.65;3.00;;;;;;;;;;5013963;28;20057;-47
2022/04/19 01:26:58;;;;;;;4.35;3.20;;;;;;;;;;5013843;28;20029;-46
2022/04/19 01:29:25;;;;;;;4.30;2.83;;;;;;;;;;5013527;28;20034;-46
2022/04/19 01:31:51;;;;;;;4.55;3.00;;;;;;;;;;5013783;28;20022;-45
2022/04/19 01:34:19;;;;;;;5.03;2.63;;;;;;;;;;5013635;28;20025;-46
2022/04/19 01:36:44;;;;;;;4.18;3.13;;;;;;;;;;5013730;28;20017;-46
2022/04/19 01:39:11;;;;;;;3.45;3.00;;;;;;;;;;5013425;28;20557;-46
2022/04/19 01:41:38;;;;;;;5.70;3.83;;;;;;;;;;5013612;28;20028;-46
2022/04/19 01:44:05;;;;;;;3.92;2.88;;;;;;;;;;5013331;28;20025;-46
2022/04/19 01:46:34;;;;;;;3.63;2.67;;;;;;;;;;5013587;28;20022;-47
2022/04/19 01:49:04;;;;;;;5.60;2.53;;;;;;;;;;5013500;28;20033;-46
2022/04/19 01:51:30;;;;;;;1.25;1.20;;;;;;;;;;5013232;28;20026;-46
2022/04/19 01:53:56;;;;;;;1.63;1.52;;;;;;;;;;5013157;28;20076;-45
2022/04/19 01:56:22;;;;;;;1.15;1.13;;;;;;;;;;5013078;28;20026;-46
2022/04/19 01:58:48;;;;;;;5.10;3.80;;;;;;;;;;5013435;28;20096;-45
2022/04/19 02:01:14;;;;;;;3.38;1.98;;;;;;;;;;5012798;28;20482;-45
2022/04/19 02:03:40;;;;;;;4.25;2.60;;;;;;;;;;4995531;28;20398;-48
2022/04/19 02:06:10;;;;;;;10.30;3.00;;;;;;;;;;5013218;28;20463;-45
2022/04/19 02:08:36;;;;;;;4.38;3.42;;;;;;;;;;5012924;28;20045;-46
2022/04/19 02:11:02;;;;;;;7.40;3.17;;;;;;;;;;5013139;28;20034;-45
2022/04/19 02:13:27;;;;;;;8.95;4.03;;;;;;;;;;5013121;28;20029;-47
2022/04/19 02:15:53;;;;;;;4.55;3.60;;;;;;;;;;5012706;28;20382;-45
2022/04/19 02:18:19;;;;;;;4.45;3.35;;;;;;;;;;5012927;28;20022;-44
2022/04/19 02:20:45;;;;;;;5.75;3.55;;;;;;;;;;5013033;28;20018;-47
2022/04/19 02:23:15;;;;;;;5.93;3.72;;;;;;;;;;5012980;28;20099;-45
2022/04/19 02:25:41;;;;;;;4.25;3.30;;;;;;;;;;5012672;28;20049;-46
2022/04/19 02:28:06;;;;;;;4.95;2.63;;;;;;;;;;5012672;28;20077;-46
2022/04/19 02:30:32;;;;;;;3.67;2.72;;;;;;;;;;5012559;28;20030;-45
2022/04/19 02:32:58;;;;;;;2.80;2.50;;;;;;;;;;5012569;28;20045;-45
2022/04/19 02:35:26;;;;;;;8.73;3.95;;;;;;;;;;5012618;28;20113;-45
2022/04/19 02:37:54;;;;;;;2.88;2.38;;;;;;;;;;5012611;28;20030;-44
2022/04/19 02:40:21;;;;;;;3.53;2.97;;;;;;;;;;5012764;28;20465;-45
2022/04/19 02:42:48;;;;;;;3.30;2.97;;;;;;;;;;5012805;28;20033;-44
2022/04/19 02:45:13;;;;;;;4.13;3.13;;;;;;;;;;5012344;28;20060;-46
2022/04/19 02:47:41;;;;;;;3.67;2.50;;;;;;;;;;5012846;28;20061;-45
2022/04/19 02:50:07;;;;;;;2.20;1.95;;;;;;;;;;5012640;28;20124;-45
2022/04/19 02:52:32;;;;;;;3.08;2.30;;;;;;;;;;5012407;28;20110;-46
2022/04/19 02:54:58;;;;;;;4.57;2.90;;;;;;;;;;4995119;28;20029;-44
2022/04/19 02:57:23;;;;;;;3.30;2.67;;;;;;;;;;5012494;28;20037;-45
2022/04/19 02:59:49;;;;;;;5.30;2.88;;;;;;;;;;5012432;28;20084;-45
2022/04/19 03:02:14;;;;;;;3.95;2.28;;;;;;;;;;5012219;28;20041;-45
2022/04/19 03:04:41;;;;;;;2.45;2.03;;;;;;;;;;5012268;28;20493;-45
2022/04/19 03:07:06;;;;;;;2.05;1.85;;;;;;;;;;5012634;28;20026;-45
2022/04/19 03:09:32;;;;;;;7.38;2.90;;;;;;;;;;5012521;28;20520;-43
2022/04/19 03:11:58;;;;;;;4.03;3.05;;;;;;;;;;5012283;28;20084;-45
2022/04/19 03:14:25;;;;;;;3.83;2.88;;;;;;;;;;5012463;28;20034;-43
2022/04/19 03:16:51;;;;;;;3.40;2.88;;;;;;;;;;5012557;28;20026;-44
2022/04/19 03:19:17;;;;;;;4.80;3.47;;;;;;;;;;5012409;28;20037;-44
2022/04/19 03:21:42;;;;;;;3.08;2.22;;;;;;;;;;5012233;28;20026;-45
2022/04/19 03:29:36;;;;;;;5.68;3.40;;;;;;;;;;5015958;28;20037;-45
2022/04/19 03:32:02;;;;;;;3.67;3.00;;;;;;;;;;5015834;28;20382;-45
2022/04/19 03:34:27;;;;;;;5.22;2.70;;;;;;;;;;5015754;28;20018;-45
2022/04/19 03:36:53;;;;;;;4.50;3.35;;;;;;;;;;5015985;28;20021;-46
2022/04/19 03:39:18;;;;;;;6.30;3.40;;;;;;;;;;5015689;28;20073;-45
2022/04/19 03:41:44;;;;;;;4.07;2.88;;;;;;;;;;5015875;28;20025;-45
2022/04/19 03:44:12;;;;;;;3.25;2.60;;;;;;;;;;5015529;28;20394;-45
2022/04/19 03:47:07;;;;;;;4.93;2.95;;;;;;;;;;5015555;28;20034;-45
2022/04/19 03:49:26;;;;;;;2.50;1.80;;;;;;;;;;5015336;28;20038;-44
2022/04/19 03:51:52;;;;;;;4.60;3.65;;;;;;;;;;5015633;28;20026;-47
2022/04/19 03:54:17;;;;;;;3.95;2.88;;;;;;;;;;5015341;28;20026;-45
2022/04/19 03:56:43;;;;;;;5.25;3.08;;;;;;;;;;5015395;28;20022;-45
2022/04/19 03:59:10;;;;;;;7.20;2.88;;;;;;;;;;5015598;28;20026;-46
2022/04/19 04:01:38;;;;;;;2.95;2.67;;;;;;;;;;5015001;28;20095;-43
2022/04/19 04:04:04;;;;;;;3.85;2.88;;;;;;;;;;5015192;28;20026;-46
2022/04/19 04:06:30;;;;;;;4.05;2.10;;;;;;;;;;5015395;28;20388;-46
2022/04/19 04:08:57;;;;;;;2.60;2.00;;;;;;;;;;5014997;28;20026;-44
2022/04/19 04:11:22;;;;;;;4.50;2.53;;;;;;;;;;5015320;28;20046;-45
2022/04/19 04:13:47;;;;;;;3.88;2.78;;;;;;;;;;5014922;28;20038;-45
2022/04/19 04:16:13;;;;;;;3.97;2.83;;;;;;;;;;5014947;28;20123;-44
2022/04/19 04:18:41;;;;;;;3.75;1.73;;;;;;;;;;5014884;28;20030;-43
2022/04/19 04:21:07;;;;;;;3.85;2.05;;;;;;;;;;5014821;28;20109;-47
2022/04/19 04:23:33;;;;;;;2.22;1.60;;;;;;;;;;5014772;28;20057;-45
2022/04/19 04:26:01;;;;;;;4.32;2.40;;;;;;;;;;5014634;28;20021;-46
2022/04/19 04:28:27;;;;;;;2.25;1.80;;;;;;;;;;5014931;28;20482;-45
2022/04/19 04:30:52;;;;;;;2.85;2.20;;;;;;;;;;5014880;28;20033;-44
2022/04/19 04:33:18;;;;;;;3.20;1.80;;;;;;;;;;5014656;28;20030;-48
2022/04/19 04:35:44;;;;;;;2.08;1.55;;;;;;;;;;5014811;28;20051;-46
2022/04/19 04:38:09;;;;;;;7.40;2.78;;;;;;;;;;5014532;28;20084;-47
2022/04/19 04:40:35;;;;;;;3.78;2.78;;;;;;;;;;5014647;28;20021;-45
2022/04/19 04:43:01;;;;;;;2.58;1.83;;;;;;;;;;5014525;28;20101;-44
2022/04/19 04:45:26;;;;;;;4.68;2.40;;;;;;;;;;5014365;28;20026;-45
2022/04/19 04:50:36;;;;;;;5.25;2.00;;;;;;;;;;5014463;28;20117;-45
2022/04/19 04:53:02;;;;;;;3.15;2.20;;;;;;;;;;5014268;28;20104;-44
2022/04/19 04:55:27;;;;;;;6.88;1.80;;;;;;;;;;5014440;28;20041;-45
2022/04/19 04:57:57;;;;;;;4.07;1.88;;;;;;;;;;5014533;28;20084;-45
2022/04/19 05:00:23;;;;;;;2.10;1.90;;;;;;;;;;5014116;28;20057;-44
2022/04/19 05:02:49;;;;;;;1.88;1.48;;;;;;;;;;5013972;28;20326;-45
2022/04/19 05:05:14;;;;;;;2.20;2.00;;;;;;;;;;5013966;28;20037;-46
2022/04/19 05:07:40;;;;;;;2.40;2.20;;;;;;;;;;5014235;28;20433;-45
2022/04/19 05:10:06;;;;;;;2.30;1.92;;;;;;;;;;5014166;28;20029;-45
2022/04/19 05:12:31;;;;;;;3.92;2.83;;;;;;;;;;5013939;28;20382;-47
2022/04/19 05:14:57;;;;;;;2.85;2.10;;;;;;;;;;5013811;28;20033;-45
2022/04/19 05:17:23;;;;;;;1.63;1.52;;;;;;;;;;5013867;28;20034;-46
2022/04/19 05:19:48;;;;;;;1.20;1.15;;;;;;;;;;5013741;28;20033;-46
2022/04/19 05:22:14;;;;;;;2.97;2.30;;;;;;;;;;5013972;28;20033;-48
2022/04/19 05:24:39;;;;;;;2.58;2.38;;;;;;;;;;5013992;28;20040;-47
2022/04/19 05:27:05;;;;;;;3.65;1.73;;;;;;;;;;5014016;28;20022;-46
2022/04/19 05:29:30;;;;;;;2.75;1.77;;;;;;;;;;5013588;28;20540;-47
2022/04/19 05:31:56;;;;;;;2.63;1.95;;;;;;;;;;5013875;28;20025;-47
2022/04/19 05:34:21;;;;;;;2.63;2.15;;;;;;;;;;5013799;28;20538;-45
2022/04/19 05:36:47;;;;;;;1.98;1.48;;;;;;;;;;5013489;28;20378;-45
2022/04/19 05:39:12;;;;;;;3.47;2.03;;;;;;;;;;5013345;28;20394;-46
2022/04/19 05:41:39;;;;;;;2.00;1.80;;;;;;;;;;5013139;28;20054;-47
2022/04/19 05:44:06;;;;;;;1.40;1.30;;;;;;;;;;5012318;28;20381;-46
2022/04/19 05:46:31;;;;;;;3.80;2.42;;;;;;;;;;5011582;28;20076;-44
2022/04/19 05:48:57;;;;;;;2.17;1.98;;;;;;;;;;5011801;28;20025;-45
2022/04/19 05:51:22;;;;;;;3.25;2.40;;;;;;;;;;5013070;28;20037;-50
2022/04/19 05:53:48;;;;;;;2.75;2.40;;;;;;;;;;5013458;28;20029;-50
2022/04/19 05:56:13;;;;;;;2.22;2.03;;;;;;;;;;4995590;28;20025;-45
2022/04/19 05:58:39;;;;;;;2.05;1.65;;;;;;;;;;5011413;28;20022;-49
2022/04/19 06:01:06;;;;;;;3.88;2.33;;;;;;;;;;5008387;28;20058;-49
2022/04/19 06:06:16;;;;;;;11.50;2.70;;;;;;;;;;5012497;28;20091;-51
2022/04/19 06:08:42;;;;;;;4.32;2.50;;;;;;;;;;5012634;28;20033;-49
2022/04/19 06:11:11;;;;;;;2.25;2.05;;;;;;;;;;5012839;28;20029;-47
2022/04/19 06:13:36;;;;;;;2.38;2.17;;;;;;;;;;5012749;28;20026;-49
2022/04/19 06:16:02;;;;;;;3.25;2.42;;;;;;;;;;5012695;28;20030;-46
2022/04/19 06:18:28;;;;;;;3.60;2.10;;;;;;;;;;5012449;28;20034;-46
2022/04/19 06:20:54;;;;;;;2.53;2.05;;;;;;;;;;5012722;28;20040;-45
2022/04/19 06:23:20;;;;;;;17.70;12.00;;;;;;;;;;5012981;28;20375;-45
2022/04/19 06:25:46;;;;;;;4.30;2.65;;;;;;;;;;5012950;28;20017;-45
2022/04/19 06:28:11;;;;;;;4.20;2.25;;;;;;;;;;5012526;28;20080;-48
2022/04/19 06:30:37;;;;;;;3.28;2.63;;;;;;;;;;5012571;28;20117;-49
2022/04/19 06:33:03;;;;;;;3.65;2.22;;;;;;;;;;5012888;28;20088;-46
2022/04/19 06:35:29;;;;;;;5.22;2.80;;;;;;;;;;5012773;28;20104;-46
2022/04/19 06:37:54;;;;;;;3.25;2.83;;;;;;;;;;5012558;28;20573;-50
2022/04/19 06:40:20;;;;;;;6.50;3.60;;;;;;;;;;5012758;28;20100;-47
2022/04/19 06:42:45;;;;;;;3.38;3.08;;;;;;;;;;5012596;28;20021;-45
2022/04/19 06:45:11;;;;;;;4.85;3.35;;;;;;;;;;5012520;28;20440;-50
2022/04/19 06:47:38;;;;;;;5.53;3.17;;;;;;;;;;5012088;28;20022;-45
2022/04/19 06:50:04;;;;;;;5.35;3.20;;;;;;;;;;5011955;28;20026;-47
2022/04/19 06:52:29;;;;;;;3.25;2.85;;;;;;;;;;5011763;28;20121;-49
2022/04/19 06:54:55;;;;;;;3.95;3.10;;;;;;;;;;5012338;28;20109;-47
2022/04/19 06:57:21;;;;;;;5.40;4.25;;;;;;;;;;4994119;28;20572;-45
2022/04/19 06:59:47;;;;;;;5.60;3.47;;;;;;;;;;5012556;28;20026;-45
2022/04/19 07:02:13;;;;;;;6.05;4.68;;;;;;;;;;5015297;28;20042;-49
2022/04/19 07:04:40;;;;;;;7.82;3.88;;;;;;;;;;5014740;28;20394;-46
2022/04/19 07:07:07;;;;;;;5.25;3.85;;;;;;;;;;5014880;28;20108;-48
2022/04/19 07:09:33;;;;;;;4.50;3.97;;;;;;;;;;5014807;28;20073;-49
2022/04/19 07:11:58;;;;;;;4.30;3.60;;;;;;;;;;5014758;28;20054;-49
2022/04/19 07:14:24;;;;;;;4.57;4.15;;;;;;;;;;5014867;28;20072;-50
2022/04/19 07:16:51;;;;;;;5.72;4.22;;;;;;;;;;5014441;28;20531;-48
2022/04/19 07:19:17;;;;;;;9.00;4.47;;;;;;;;;;4996701;28;20069;-49
2022/04/19 07:27:12;;;;;;;5.07;4.28;;;;;;;;;;4993031;28;20046;-47
2022/04/19 07:29:38;;;;;;;5.25;4.15;;;;;;;;;;5014447;28;20044;-46
2022/04/19 07:32:04;;;;;;;5.00;4.50;;;;;;;;;;5014003;28;20474;-49
2022/04/19 07:34:30;;;;;;;4.97;4.22;;;;;;;;;;5014006;28;20158;-49
2022/04/19 07:36:57;;;;;;;6.15;4.65;;;;;;;;;;5014348;28;20026;-46
2022/04/19 07:39:22;;;;;;;5.07;4.10;;;;;;;;;;5013921;28;20026;-46
2022/04/19 07:41:49;;;;;;;6.90;4.28;;;;;;;;;;5014051;28;20032;-44
2022/04/19 07:44:18;;;;;;;8.02;4.90;;;;;;;;;;5013664;28;20029;-47
2022/04/19 07:46:44;;;;;;;6.00;4.70;;;;;;;;;;5013854;28;20492;-45
2022/04/19 07:49:09;;;;;;;6.43;5.13;;;;;;;;;;5014001;28;20038;-45
2022/04/19 07:51:35;;;;;;;6.03;5.00;;;;;;;;;;5014053;28;20509;-44
2022/04/19 07:54:01;;;;;;;5.57;4.75;;;;;;;;;;5014080;28;20053;-47
2022/04/19 07:56:27;;;;;;;8.50;5.22;;;;;;;;;;5014030;28;20045;-44
2022/04/19 07:58:53;;;;;;;5.63;4.97;;;;;;;;;;5013755;28;20120;-45
2022/04/19 08:01:19;;;;;;;8.57;5.00;;;;;;;;;;5013524;28;20046;-48
2022/04/19 08:03:45;;;;;;;5.75;4.70;;;;;;;;;;5013850;28;20026;-46
2022/04/19 08:06:11;;;;;;;8.52;4.90;;;;;;;;;;5013597;28;20036;-46
2022/04/19 08:08:37;;;;;;;5.95;4.95;;;;;;;;;;5013459;28;20477;-50
2022/04/19 08:11:03;;;;;;;7.00;4.28;;;;;;;;;;5013572;28;20030;-48
2022/04/19 08:13:29;;;;;;;7.32;4.50;;;;;;;;;;5012923;28;20022;-47
2022/04/19 08:15:54;;;;;;;6.22;4.97;;;;;;;;;;5013290;28;20482;-46
2022/04/19 08:18:21;;;;;;;6.93;4.90;;;;;;;;;;5013727;28;20026;-49
2022/04/19 08:20:47;;;;;;;5.45;4.88;;;;;;;;;;5013647;28;20052;-49
2022/04/19 08:23:13;;;;;;;7.22;4.95;;;;;;;;;;5013540;28;20032;-48
2022/04/19 08:25:39;;;;;;;5.10;4.60;;;;;;;;;;5013575;28;20429;-49
2022/04/19 08:28:06;;;;;;;5.68;4.50;;;;;;;;;;5013073;28;20100;-48
2022/04/19 08:30:32;;;;;;;10.55;6.57;;;;;;;;;;5013048;28;20038;-48
2022/04/19 08:32:58;;;;;;;6.43;5.03;;;;;;;;;;5013145;28;20034;-52
2022/04/19 08:35:23;;;;;;;10.15;6.80;;;;;;;;;;5013345;28;20084;-47
2022/04/19 08:37:49;;;;;;;6.38;4.80;;;;;;;;;;5013144;28;20390;-45
2022/04/19 08:40:16;;;;;;;11.10;5.35;;;;;;;;;;5012755;28;20033;-43
2022/04/19 08:42:43;;;;;;;8.60;5.97;;;;;;;;;;5012673;28;20022;-47
2022/04/19 08:45:10;;;;;;;6.80;4.80;;;;;;;;;;5012820;28;20029;-46
2022/04/19 08:47:41;;;;;;;7.82;4.70;;;;;;;;;;5012663;28;20024;-46
2022/04/19 08:50:11;;;;;;;7.07;4.72;;;;;;;;;;5012383;28;20187;-46
2022/04/19 08:52:37;;;;;;;9.88;5.32;;;;;;;;;;5012699;28;20041;-45
2022/04/19 08:57:49;;;;;;;7.93;4.03;;;;;;;;;;5012889;28;20051;-47
2022/04/19 09:00:15;;;;;;;5.32;4.40;;;;;;;;;;5012231;28;20053;-49
2022/04/19 09:02:41;;;;;;;6.00;4.70;;;;;;;;;;5012521;28;20037;-46
2022/04/19 09:05:15;;;;;;;13.27;8.80;;;;;;;;;;5012557;28;20025;-49
2022/04/19 09:07:41;;;;;;;7.57;5.50;;;;;;;;;;5012733;28;20034;-48
2022/04/19 09:10:07;;;;;;;7.43;5.63;;;;;;;;;;5012228;28;20037;-48
2022/04/19 09:12:33;;;;;;;6.68;5.28;;;;;;;;;;4994783;28;20034;-45
2022/04/19 09:15:03;;;;;;;9.10;5.50;;;;;;;;;;5012307;28;20022;-46
2022/04/19 09:17:31;;;;;;;9.60;6.20;;;;;;;;;;5012226;28;20199;-45
2022/04/19 09:20:20;;;;;;;5.28;4.50;;;;;;;;;;5012083;28;20112;-45
2022/04/19 09:22:49;;;;;;;8.32;5.82;;;;;;;;;;5012194;28;20030;-47
2022/04/19 09:25:15;;;;;;;9.20;5.67;;;;;;;;;;5011378;28;20391;-45
2022/04/19 09:27:45;;;;;;;6.95;4.75;;;;;;;;;;5011946;28;20120;-46
2022/04/19 09:30:34;;;;;;;6.95;4.82;;;;;;;;;;4994318;28;20053;-46
2022/04/19 09:33:14;;;;;;;10.18;6.32;;;;;;;;;;5004338;28;20494;-43
2022/04/19 09:35:54;;;;;;;6.97;5.30;;;;;;;;;;5013765;28;20057;-45
2022/04/19 09:38:49;;;;;;;10.43;6.53;;;;;;;;;;5013715;28;20136;-47
2022/04/19 09:41:28;;;;;;;5.35;4.53;;;;;;;;;;5000203;28;20038;-48
2022/04/19 09:44:10;;;;;;;7.57;5.40;;;;;;;;;;5013711;28;20083;-46
2022/04/19 09:46:38;;;;;;;6.90;5.47;;;;;;;;;;5013435;28;20041;-45
2022/04/19 09:49:04;;;;;;;8.70;5.80;;;;;;;;;;5013147;28;20493;-48
2022/04/19 09:51:31;;;;;;;8.10;5.15;;;;;;;;;;5013095;28;20037;-45
2022/04/19 09:53:57;;;;;;;6.93;5.13;;;;;;;;;;5013075;28;20051;-50
2022/04/19 09:56:35;;;;;;;5.60;4.50;;;;;;;;;;5125995;27;20404;-45
2022/04/19 09:59:02;;;;;;;7.55;4.35;;;;;;;;;;5110475;28;20127;-44
2022/04/19 10:09:31;;;;;;;7.93;4.95;;;;;;;;;;5110292;28;20027;-44
2022/04/19 10:11:57;;;;;;;7.55;5.40;;;;;;;;;;5110336;28;20054;-47
2022/04/19 10:14:23;;;;;;;11.48;5.00;;;;;;;;;;5109781;28;20530;-41
2022/04/19 10:16:49;;;;;;;6.47;4.88;;;;;;;;;;5109794;28;20119;-42
2022/04/19 10:19:16;;;;;;;8.35;5.50;;;;;;;;;;5109976;28;20020;-43
2022/04/19 10:21:43;;;;;;;6.55;4.80;;;;;;;;;;5110030;28;20088;-43
2022/04/19 10:24:15;;;;;;;7.75;4.63;;;;;;;;;;5109553;28;20024;-43
2022/04/19 10:26:46;;;;;;;8.52;5.15;;;;;;;;;;5109679;28;20066;-44
2022/04/19 10:29:26;;;;;;;9.82;5.47;;;;;;;;;;5109440;28;20490;-44
2022/04/19 10:32:07;;;;;;;6.63;4.70;;;;;;;;;;5109996;28;20093;-45
2022/04/19 10:34:37;;;;;;;7.47;5.22;;;;;;;;;;5109795;28;20081;-45
2022/04/19 10:37:12;;;;;;;6.55;5.00;;;;;;;;;;5110048;28;20024;-45
2022/04/19 10:40:05;;;;;;;5.90;4.38;;;;;;;;;;5109696;28;20418;-49
2022/04/19 10:42:34;;;;;;;6.82;4.47;;;;;;;;;;5109087;28;20142;-43
2022/04/19 10:45:12;;;;;;;6.88;4.75;;;;;;;;;;5108266;28;20036;-44
2022/04/19 10:47:56;;;;;;;6.47;4.88;;;;;;;;;;5109181;28;20479;-45
2022/04/19 10:50:30;;;;;;;13.50;5.95;;;;;;;;;;5108772;28;20040;-46
2022/04/19 10:52:59;;;;;;;7.70;5.57;;;;;;;;;;5109111;28;20027;-44
2022/04/19 10:55:27;;;;;;;6.78;5.13;;;;;;;;;;5108988;28;20055;-45
2022/04/19 11:00:46;;;;;;;7.50;5.18;;;;;;;;;;5109024;28;20158;-46
2022/04/19 11:03:33;;;;;;;5.97;5.38;;;;;;;;;;5109181;28;20031;-48
2022/04/19 11:06:01;;;;;;;7.15;4.88;;;;;;;;;;5105061;28;20412;-46
2022/04/19 11:08:29;;;;;;;7.75;5.60;;;;;;;;;;5093986;28;20039;-46
2022/04/19 11:10:55;;;;;;;7.93;5.50;;;;;;;;;;5095441;28;20026;-48
2022/04/19 11:13:40;;;;;;;9.98;6.03;;;;;;;;;;5095107;28;20069;-48
2022/04/19 11:16:05;;;;;;;8.63;6.03;;;;;;;;;;5095264;28;20032;-49
2022/04/19 11:18:37;;;;;;;10.20;6.13;;;;;;;;;;5095399;28;20034;-48
2022/04/19 11:21:11;;;;;;;11.20;5.90;;;;;;;;;;5095077;28;20030;-46
2022/04/19 11:23:57;;;;;;;8.48;5.63;;;;;;;;;;5092473;28;20035;-44
2022/04/19 11:26:34;;;;;;;9.63;5.72;;;;;;;;;;5093478;28;20036;-47
2022/04/19 11:29:09;;;;;;;6.82;5.05;;;;;;;;;;5094047;28;20031;-46
2022/04/19 11:31:43;;;;;;;9.63;5.70;;;;;;;;;;5094230;28;20016;-47
2022/04/19 11:34:13;;;;;;;7.60;5.88;;;;;;;;;;5092748;28;20024;-47
2022/04/19 11:36:39;;;;;;;6.85;5.28;;;;;;;;;;5092822;28;20028;-44
2022/04/19 11:39:05;;;;;;;6.70;4.93;;;;;;;;;;5092405;28;20081;-48
2022/04/19 11:46:48;;;;;;;6.60;5.20;;;;;;;;;;5093196;28;20434;-48
2022/04/19 11:49:19;;;;;;;7.53;5.35;;;;;;;;;;5092811;28;20017;-44
2022/04/19 11:51:46;;;;;;;7.63;5.70;;;;;;;;;;5093229;28;20115;-44
2022/04/19 11:54:23;;;;;;;7.97;5.45;;;;;;;;;;5092491;28;20029;-46
2022/04/19 11:56:58;;;;;;;8.63;5.65;;;;;;;;;;5092881;28;20035;-49
2022/04/19 11:59:26;;;;;;;7.82;5.40;;;;;;;;;;5092845;28;20106;-45
2022/04/19 12:01:53;;;;;;;6.93;5.25;;;;;;;;;;5092942;28;20483;-49
2022/04/19 12:04:18;;;;;;;7.70;5.40;;;;;;;;;;5092416;28;20484;-47
2022/04/19 12:06:54;;;;;;;6.60;5.13;;;;;;;;;;5092446;28;20024;-44
2022/04/19 12:09:20;;;;;;;8.27;5.75;;;;;;;;;;5092494;28;20058;-45
2022/04/19 12:11:48;;;;;;;9.02;5.80;;;;;;;;;;5092458;28;20480;-49
2022/04/19 12:14:32;;;;;;;7.03;5.53;;;;;;;;;;5092541;28;20430;-47
2022/04/19 12:17:10;;;;;;;11.10;6.10;;;;;;;;;;5092337;28;20092;-48
2022/04/19 12:19:41;;;;;;;6.85;5.30;;;;;;;;;;5091651;28;20379;-49
2022/04/19 12:22:19;;;;;;;8.90;5.57;;;;;;;;;;5090965;28;20615;-47
2022/04/19 12:24:55;;;;;;;7.38;5.43;;;;;;;;;;5092397;28;20509;-46
2022/04/19 12:27:37;;;;;;;6.85;5.22;;;;;;;;;;5091715;28;20063;-44
2022/04/19 12:30:04;;;;;;;7.22;5.40;;;;;;;;;;5092232;28;20074;-49
2022/04/19 12:32:50;;;;;;;10.63;6.15;;;;;;;;;;5089293;28;20020;-48
2022/04/19 12:35:17;;;;;;;9.88;5.00;;;;;;;;;;5091535;28;20032;-44
2022/04/19 12:37:43;;;;;;;7.07;5.03;;;;;;;;;;5091547;28;20032;-47
2022/04/19 12:40:09;;;;;;;7.15;4.63;;;;;;;;;;5091510;28;20111;-48
2022/04/19 12:42:49;;;;;;;6.93;4.85;;;;;;;;;;5091543;28;20032;-49
2022/04/19 12:45:15;;;;;;;4.50;3.63;;;;;;;;;;5092096;28;20043;-46
2022/04/19 12:47:50;;;;;;;7.88;4.47;;;;;;;;;;5091984;28;20028;-49
2022/04/19 12:50:19;;;;;;;5.85;4.47;;;;;;;;;;5091485;28;20036;-50
2022/04/19 12:52:45;;;;;;;3.47;2.90;;;;;;;;;;5091491;28;20028;-48
2022/04/19 12:55:11;;;;;;;6.65;4.20;;;;;;;;;;5089750;28;20483;-48
2022/04/19 12:57:39;;;;;;;6.03;4.75;;;;;;;;;;5091724;28;20024;-46
2022/04/19 13:00:09;;;;;;;4.35;3.42;;;;;;;;;;5091716;28;20032;-48
2022/04/19 13:02:40;;;;;;;6.28;3.67;;;;;;;;;;5091701;28;20068;-49
2022/04/19 13:05:06;;;;;;;4.32;3.92;;;;;;;;;;5091538;28;20165;-50
2022/04/19 13:13:05;;;;;;;3.47;3.00;;;;;;;;;;5091679;28;20030;-44
2022/04/19 13:15:39;;;;;;;3.17;2.85;;;;;;;;;;5091150;28;20060;-49
2022/04/19 13:18:06;;;;;;;4.05;3.60;;;;;;;;;;5091332;28;20020;-47
2022/04/19 13:20:32;;;;;;;4.55;3.95;;;;;;;;;;5091382;28;20028;-47
2022/04/19 13:22:58;;;;;;;4.20;3.80;;;;;;;;;;5089975;28;20480;-45
2022/04/19 13:25:24;;;;;;;6.35;4.85;;;;;;;;;;5091066;28;20020;-49
2022/04/19 13:27:50;;;;;;;7.78;5.68;;;;;;;;;;5091442;28;20040;-48
2022/04/19 13:30:19;;;;;;;6.40;5.22;;;;;;;;;;5091105;28;20028;-45
2022/04/19 13:32:46;;;;;;;5.65;4.15;;;;;;;;;;5090985;28;20772;-46
2022/04/19 13:35:12;;;;;;;6.38;5.18;;;;;;;;;;5090891;28;20035;-44
2022/04/19 13:40:21;;;;;;;12.02;7.28;;;;;;;;;;5091340;28;20131;-43
2022/04/19 13:42:48;;;;;;;9.52;6.75;;;;;;;;;;5090928;28;20122;-44
2022/04/19 13:45:13;;;;;;;9.07;5.97;;;;;;;;;;5091057;28;20748;-45
2022/04/19 13:47:39;;;;;;;8.27;5.88;;;;;;;;;;5091214;28;20028;-44
2022/04/19 13:50:05;;;;;;;10.70;6.90;;;;;;;;;;5090588;28;20051;-45
2022/04/19 13:52:33;;;;;;;10.57;7.40;;;;;;;;;;5090730;28;20056;-44
2022/04/19 13:54:59;;;;;;;8.73;5.03;;;;;;;;;;5090029;28;20040;-43
2022/04/19 13:57:25;;;;;;;5.93;5.03;;;;;;;;;;5090274;28;20035;-43
2022/04/19 13:59:50;;;;;;;9.02;5.97;;;;;;;;;;5090456;28;20441;-44
2022/04/19 14:02:16;;;;;;;10.15;7.10;;;;;;;;;;5090933;28;20031;-43
2022/04/19 14:04:43;;;;;;;9.20;5.25;;;;;;;;;;5090791;28;20710;-47
2022/04/19 14:07:09;;;;;;;6.30;4.45;;;;;;;;;;5091166;28;20036;-47
2022/04/19 14:09:36;;;;;;;6.93;5.57;;;;;;;;;;5090950;28;20028;-43
2022/04/19 14:12:02;;;;;;;5.93;3.97;;;;;;;;;;5090632;28;20522;-43
2022/04/19 14:14:28;;;;;;;7.72;4.63;;;;;;;;;;5090845;28;20036;-45
2022/04/19 14:16:53;;;;;;;5.45;3.45;;;;;;;;;;5090935;28;20371;-45
2022/04/19 14:19:19;;;;;;;7.38;5.45;;;;;;;;;;5090549;28;20032;-45
2022/04/19 14:21:45;;;;;;;5.95;4.80;;;;;;;;;;5090909;28;20032;-47
2022/04/19 14:24:12;;;;;;;6.53;4.88;;;;;;;;;;5090873;28;20376;-45
2022/04/19 14:26:37;;;;;;;6.50;4.78;;;;;;;;;;5090874;28;20372;-46
2022/04/19 14:34:31;;;;;;;9.45;7.03;;;;;;;;;;5090855;28;20066;-46
2022/04/19 14:36:56;;;;;;;11.00;6.90;;;;;;;;;;5090529;28;20059;-45
2022/04/19 14:39:22;;;;;;;12.52;7.43;;;;;;;;;;5090379;28;20517;-45
2022/04/19 14:41:48;;;;;;;8.05;6.10;;;;;;;;;;5091706;28;20028;-44
2022/04/19 14:44:13;;;;;;;10.43;7.15;;;;;;;;;;5094356;28;20468;-47
2022/04/19 14:46:39;;;;;;;15.20;7.82;;;;;;;;;;5094147;28;20027;-44
2022/04/19 14:49:04;;;;;;;7.28;5.93;;;;;;;;;;5094193;28;20028;-44
2022/04/19 14:54:14;;;;;;;7.95;5.82;;;;;;;;;;5094083;28;20057;-44
2022/04/19 14:56:40;;;;;;;8.77;6.80;;;;;;;;;;5094438;28;20036;-43
2022/04/19 14:59:06;;;;;;;11.55;7.78;;;;;;;;;;5094188;28;20052;-45
2022/04/19 15:01:32;;;;;;;13.27;8.40;;;;;;;;;;5093900;28;20024;-46
2022/04/19 15:03:57;;;;;;;11.30;8.18;;;;;;;;;;5094145;28;20028;-46
2022/04/19 15:06:22;;;;;;;8.68;5.78;;;;;;;;;;5093844;28;20020;-45
2022/04/19 15:08:49;;;;;;;14.35;8.30;;;;;;;;;;5093724;28;20020;-44
2022/04/19 15:11:15;;;;;;;14.27;9.10;;;;;;;;;;5093896;28;20468;-45
2022/04/19 15:13:41;;;;;;;13.32;8.98;;;;;;;;;;5093967;28;20040;-44
2022/04/19 15:16:07;;;;;;;9.75;6.88;;;;;;;;;;5093575;28;20035;-45
2022/04/19 15:18:32;;;;;;;9.00;6.13;;;;;;;;;;5093866;28;20032;-44
2022/04/19 15:20:58;;;;;;;12.50;7.97;;;;;;;;;;5093815;28;20468;-44
2022/04/19 15:23:24;;;;;;;14.93;8.60;;;;;;;;;;5093565;28;20492;-46
2022/04/19 15:25:50;;;;;;;11.10;7.03;;;;;;;;;;5093748;28;20499;-43
2022/04/19 15:28:16;;;;;;;10.23;7.03;;;;;;;;;;5091970;28;20042;-43
2022/04/19 15:30:41;;;;;;;13.05;8.60;;;;;;;;;;5093291;28;20031;-43
2022/04/19 15:33:07;;;;;;;10.93;7.85;;;;;;;;;;5093652;28;20115;-45
2022/04/19 15:35:32;;;;;;;9.77;7.57;;;;;;;;;;5093417;28;20494;-43
2022/04/19 15:37:58;;;;;;;11.30;7.07;;;;;;;;;;5093516;28;20103;-43